Time;durP1;ratioP1;P1;durP2;ratioP2;P2;SDS_P1;SDS_P2;PMS_P1;PMS_P2;Temp;Humidity;BMP_temperature;BMP_pressure;BME280_temperature;BME280_humidity;BME280_pressure;Samples;Min_cycle;Max_cycle;Signal;HPM_P1;HPM_P2
2021/08/06 00:00:33;;;;;;;5.87;3.00;;;;;;;;;;5058246;28;20180;-86
2021/08/06 00:02:59;;;;;;;2.87;2.60;;;;;;;;;;5056574;28;20280;-86
2021/08/06 00:05:25;;;;;;;3.57;3.03;;;;;;;;;;5075584;28;20173;-85
2021/08/06 00:07:51;;;;;;;2.77;2.57;;;;;;;;;;5057466;28;20196;-85
2021/08/06 00:10:17;;;;;;;4.73;2.87;;;;;;;;;;5057164;28;20184;-85
2021/08/06 00:12:43;;;;;;;4.20;3.40;;;;;;;;;;5056902;28;20240;-85
2021/08/06 00:15:09;;;;;;;3.47;3.17;;;;;;;;;;5057034;28;20256;-85
2021/08/06 00:17:35;;;;;;;3.10;2.80;;;;;;;;;;5057106;28;20184;-86
2021/08/06 00:20:01;;;;;;;2.87;2.67;;;;;;;;;;5056743;28;20189;-85
2021/08/06 00:22:27;;;;;;;2.80;2.60;;;;;;;;;;5056572;28;20178;-85
2021/08/06 00:24:53;;;;;;;3.70;3.00;;;;;;;;;;5053788;28;20225;-86
2021/08/06 00:27:19;;;;;;;3.10;2.80;;;;;;;;;;5055713;28;20582;-86
2021/08/06 00:29:45;;;;;;;3.40;3.10;;;;;;;;;;5056495;28;20509;-86
2021/08/06 00:32:12;;;;;;;3.27;2.97;;;;;;;;;;5057220;28;20172;-85
2021/08/06 00:34:38;;;;;;;3.23;2.93;;;;;;;;;;5056359;28;20192;-86
2021/08/06 00:37:04;;;;;;;4.67;3.17;;;;;;;;;;5057122;28;20168;-85
2021/08/06 00:39:30;;;;;;;3.30;3.00;;;;;;;;;;5056811;28;21005;-86
2021/08/06 00:41:56;;;;;;;2.77;2.53;;;;;;;;;;5056212;28;20180;-85
2021/08/06 00:44:22;;;;;;;5.47;3.37;;;;;;;;;;5056519;28;20259;-85
2021/08/06 00:46:48;;;;;;;3.33;3.00;;;;;;;;;;5056210;28;20189;-85
2021/08/06 00:49:14;;;;;;;3.23;2.90;;;;;;;;;;5044977;28;20181;-86
2021/08/06 00:51:40;;;;;;;2.77;2.57;;;;;;;;;;5071968;28;20192;-86
2021/08/06 00:54:06;;;;;;;3.90;3.20;;;;;;;;;;5057705;28;20550;-86
2021/08/06 00:56:32;;;;;;;3.30;3.00;;;;;;;;;;5090508;28;20546;-86
2021/08/06 00:58:58;;;;;;;4.17;2.90;;;;;;;;;;5072618;28;20545;-87
2021/08/06 01:01:25;;;;;;;4.63;2.97;;;;;;;;;;5072632;28;20188;-86
2021/08/06 01:04:10;;;;;;;4.93;3.43;;;;;;;;;;5074598;28;20814;-87
2021/08/06 01:06:47;;;;;;;3.40;3.10;;;;;;;;;;5088249;28;20526;-86
2021/08/06 01:09:13;;;;;;;4.07;3.03;;;;;;;;;;5072349;28;20165;-86
2021/08/06 01:11:41;;;;;;;3.07;2.77;;;;;;;;;;5072321;28;20260;-86
2021/08/06 01:14:11;;;;;;;3.40;2.63;;;;;;;;;;5071188;28;20542;-86
2021/08/06 01:16:38;;;;;;;2.80;2.53;;;;;;;;;;5069512;28;20265;-85
2021/08/06 01:19:04;;;;;;;3.57;3.27;;;;;;;;;;5073102;28;20666;-85
2021/08/06 01:21:32;;;;;;;3.63;3.00;;;;;;;;;;5072174;28;20181;-86
2021/08/06 01:24:01;;;;;;;3.27;2.97;;;;;;;;;;5069580;28;20554;-85
2021/08/06 01:26:27;;;;;;;4.43;3.00;;;;;;;;;;5060035;28;20192;-86
2021/08/06 01:28:54;;;;;;;4.90;3.10;;;;;;;;;;5070443;28;20184;-86
2021/08/06 01:31:24;;;;;;;3.57;3.27;;;;;;;;;;5072517;28;20578;-85
2021/08/06 01:33:50;;;;;;;4.50;3.07;;;;;;;;;;5063937;28;20185;-86
2021/08/06 01:36:17;;;;;;;3.50;3.20;;;;;;;;;;5071804;28;20467;-86
2021/08/06 01:38:43;;;;;;;4.00;2.60;;;;;;;;;;5073572;28;20185;-85
2021/08/06 01:41:17;;;;;;;3.60;3.30;;;;;;;;;;5073454;28;20233;-85
2021/08/06 01:44:02;;;;;;;4.67;2.87;;;;;;;;;;5069521;28;20203;-85
2021/08/06 01:46:32;;;;;;;3.30;3.00;;;;;;;;;;5053248;28;20192;-86
2021/08/06 01:49:02;;;;;;;3.50;3.10;;;;;;;;;;5062612;28;20196;-86
2021/08/06 01:51:31;;;;;;;3.20;2.90;;;;;;;;;;5072744;28;20179;-85
2021/08/06 01:53:58;;;;;;;3.30;2.70;;;;;;;;;;5071398;28;20223;-86
2021/08/06 01:56:25;;;;;;;5.40;3.20;;;;;;;;;;5050975;28;20209;-86
2021/08/06 01:58:53;;;;;;;7.40;2.93;;;;;;;;;;5072386;28;20216;-86
2021/08/06 02:01:19;;;;;;;3.67;2.87;;;;;;;;;;5072764;28;20169;-86
2021/08/06 02:03:45;;;;;;;2.90;2.70;;;;;;;;;;5055077;28;20203;-86
2021/08/06 02:06:11;;;;;;;3.40;2.93;;;;;;;;;;5053602;28;20283;-86
2021/08/06 02:08:38;;;;;;;4.00;3.60;;;;;;;;;;5055672;28;20460;-85
2021/08/06 02:11:04;;;;;;;3.57;2.97;;;;;;;;;;5055430;28;20619;-85
2021/08/06 02:13:30;;;;;;;2.50;2.30;;;;;;;;;;5056149;28;20235;-86
2021/08/06 02:15:57;;;;;;;2.90;2.70;;;;;;;;;;5055679;28;20176;-86
2021/08/06 02:18:23;;;;;;;2.77;2.57;;;;;;;;;;5073093;28;20220;-86
2021/08/06 02:20:58;;;;;;;3.33;3.03;;;;;;;;;;5054338;28;20191;-86
2021/08/06 02:23:25;;;;;;;3.43;3.13;;;;;;;;;;5054825;28;20262;-85
2021/08/06 02:25:52;;;;;;;4.70;2.77;;;;;;;;;;5054563;28;20172;-85
2021/08/06 02:28:19;;;;;;;2.73;2.40;;;;;;;;;;5054509;28;20181;-86
2021/08/06 02:30:46;;;;;;;3.23;2.93;;;;;;;;;;5054101;28;20184;-86
2021/08/06 02:33:13;;;;;;;3.33;3.03;;;;;;;;;;5054503;28;20195;-86
2021/08/06 02:35:39;;;;;;;3.80;2.90;;;;;;;;;;5086498;28;20588;-86
2021/08/06 02:38:05;;;;;;;2.80;2.50;;;;;;;;;;5066872;28;20269;-86
2021/08/06 02:40:31;;;;;;;3.43;2.70;;;;;;;;;;5075585;28;20185;-85
2021/08/06 02:42:57;;;;;;;3.50;2.97;;;;;;;;;;5054430;28;20205;-86
2021/08/06 02:45:23;;;;;;;3.00;2.80;;;;;;;;;;5055104;28;20294;-85
2021/08/06 02:47:49;;;;;;;4.43;2.97;;;;;;;;;;5054210;28;20196;-86
2021/08/06 02:50:16;;;;;;;3.30;3.00;;;;;;;;;;5074714;28;20519;-86
2021/08/06 02:52:42;;;;;;;3.10;2.80;;;;;;;;;;5054508;28;20555;-86
2021/08/06 02:55:08;;;;;;;3.67;3.10;;;;;;;;;;5054245;28;20620;-86
2021/08/06 02:57:35;;;;;;;4.50;3.13;;;;;;;;;;5061400;28;20668;-86
2021/08/06 03:00:01;;;;;;;3.50;3.13;;;;;;;;;;5108332;28;20179;-86
2021/08/06 03:02:27;;;;;;;3.37;3.07;;;;;;;;;;5091707;28;20184;-86
2021/08/06 03:04:53;;;;;;;3.93;3.30;;;;;;;;;;5106967;28;20218;-86
2021/08/06 03:07:20;;;;;;;5.67;3.60;;;;;;;;;;5107323;28;20195;-87
2021/08/06 03:09:46;;;;;;;3.83;3.43;;;;;;;;;;5070251;28;20325;-86
2021/08/06 03:12:12;;;;;;;7.57;3.10;;;;;;;;;;5073985;28;20171;-86
2021/08/06 03:14:40;;;;;;;4.40;4.00;;;;;;;;;;5071805;28;20312;-86
2021/08/06 03:17:06;;;;;;;4.67;3.87;;;;;;;;;;5074075;28;20172;-86
2021/08/06 03:19:32;;;;;;;3.33;3.03;;;;;;;;;;5107044;28;20176;-87
2021/08/06 03:21:58;;;;;;;3.50;3.20;;;;;;;;;;5108064;28;20183;-86
2021/08/06 03:24:24;;;;;;;5.90;3.30;;;;;;;;;;5072813;28;20341;-86
2021/08/06 03:26:50;;;;;;;5.70;3.73;;;;;;;;;;5071227;28;20944;-86
2021/08/06 03:29:16;;;;;;;3.87;3.50;;;;;;;;;;5108299;28;20240;-86
2021/08/06 03:31:42;;;;;;;5.63;3.60;;;;;;;;;;5073519;28;20176;-86
2021/08/06 03:34:08;;;;;;;4.10;3.50;;;;;;;;;;5074530;28;20291;-86
2021/08/06 03:36:37;;;;;;;4.93;3.30;;;;;;;;;;5073613;28;20208;-87
2021/08/06 03:39:03;;;;;;;4.13;3.63;;;;;;;;;;5107119;28;20199;-86
2021/08/06 03:41:29;;;;;;;5.77;3.67;;;;;;;;;;5073956;28;20226;-87
2021/08/06 03:43:55;;;;;;;4.10;3.70;;;;;;;;;;5073465;28;20196;-86
2021/08/06 03:46:21;;;;;;;4.83;3.50;;;;;;;;;;5073902;28;20218;-86
2021/08/06 03:48:48;;;;;;;3.50;3.10;;;;;;;;;;5091865;28;20595;-86
2021/08/06 03:51:14;;;;;;;4.40;3.97;;;;;;;;;;5107827;28;20607;-86
2021/08/06 03:53:40;;;;;;;5.93;3.20;;;;;;;;;;5092707;28;20534;-86
2021/08/06 03:56:06;;;;;;;5.97;3.70;;;;;;;;;;5092478;28;20172;-86
2021/08/06 03:58:32;;;;;;;4.10;3.20;;;;;;;;;;5071160;28;20279;-86
2021/08/06 04:00:58;;;;;;;5.30;3.77;;;;;;;;;;5082523;28;20633;-86
2021/08/06 04:03:24;;;;;;;3.70;3.40;;;;;;;;;;5075666;28;20206;-86
2021/08/06 04:05:50;;;;;;;4.53;4.13;;;;;;;;;;5073468;28;20226;-85
2021/08/06 04:08:16;;;;;;;3.40;3.10;;;;;;;;;;5085030;28;20572;-86
2021/08/06 04:10:42;;;;;;;3.60;3.30;;;;;;;;;;5090124;28;20179;-86
2021/08/06 04:13:08;;;;;;;3.63;3.10;;;;;;;;;;5094658;28;20205;-86
2021/08/06 04:15:34;;;;;;;5.53;3.83;;;;;;;;;;5111396;28;20646;-86
2021/08/06 04:18:00;;;;;;;3.80;3.37;;;;;;;;;;5076858;28;20215;-87
2021/08/06 04:20:26;;;;;;;4.97;3.73;;;;;;;;;;5109791;28;20176;-86
2021/08/06 04:22:52;;;;;;;3.83;3.53;;;;;;;;;;5090709;28;20227;-86
2021/08/06 04:25:19;;;;;;;3.70;3.40;;;;;;;;;;5093304;28;20190;-86
2021/08/06 04:27:45;;;;;;;4.67;3.57;;;;;;;;;;5081544;28;20182;-86
2021/08/06 04:30:11;;;;;;;5.47;3.50;;;;;;;;;;5077645;28;20184;-86
2021/08/06 04:32:38;;;;;;;4.60;3.53;;;;;;;;;;5076823;28;20273;-87
2021/08/06 04:35:04;;;;;;;6.20;4.10;;;;;;;;;;5094846;28;20176;-87
2021/08/06 04:37:30;;;;;;;3.80;3.50;;;;;;;;;;5074459;28;20215;-87
2021/08/06 04:39:56;;;;;;;6.17;3.33;;;;;;;;;;5105536;28;20954;-87
2021/08/06 04:42:22;;;;;;;6.30;3.90;;;;;;;;;;5077435;28;20667;-87
2021/08/06 04:44:49;;;;;;;3.83;3.53;;;;;;;;;;5076141;28;20273;-87
2021/08/06 04:47:15;;;;;;;4.63;4.00;;;;;;;;;;5077205;28;20237;-87
2021/08/06 04:49:41;;;;;;;5.27;3.40;;;;;;;;;;5109403;28;20460;-85
2021/08/06 04:52:07;;;;;;;4.43;3.90;;;;;;;;;;5110097;28;20182;-87
2021/08/06 04:54:33;;;;;;;4.67;3.87;;;;;;;;;;5076407;28;20184;-87
2021/08/06 04:56:59;;;;;;;4.78;4.30;;;;;;;;;;5071634;28;21298;-87
2021/08/06 04:59:25;;;;;;;4.63;3.80;;;;;;;;;;5056332;28;20565;-86
2021/08/06 05:01:51;;;;;;;4.13;3.57;;;;;;;;;;5056882;28;20184;-87
2021/08/06 05:04:17;;;;;;;4.57;3.93;;;;;;;;;;5056245;28;20216;-86
2021/08/06 05:06:43;;;;;;;4.47;3.90;;;;;;;;;;5061750;28;20188;-86
2021/08/06 05:09:09;;;;;;;4.63;3.53;;;;;;;;;;5077594;28;20183;-87
2021/08/06 05:11:35;;;;;;;5.13;3.23;;;;;;;;;;5078100;28;20172;-87
2021/08/06 05:14:01;;;;;;;3.27;2.80;;;;;;;;;;5065330;28;20184;-87
2021/08/06 05:16:27;;;;;;;5.83;3.40;;;;;;;;;;5056713;28;20192;-87
2021/08/06 05:18:54;;;;;;;4.67;3.30;;;;;;;;;;5075812;28;20200;-87
2021/08/06 05:21:20;;;;;;;4.03;3.33;;;;;;;;;;5059124;28;20180;-87
2021/08/06 05:23:46;;;;;;;4.07;3.17;;;;;;;;;;5090256;28;20561;-87
2021/08/06 05:26:12;;;;;;;5.93;3.10;;;;;;;;;;5057382;28;20259;-86
2021/08/06 05:28:38;;;;;;;4.00;3.10;;;;;;;;;;5074701;28;20260;-86
2021/08/06 05:31:04;;;;;;;3.23;3.03;;;;;;;;;;5090029;28;20180;-80
2021/08/06 05:33:30;;;;;;;4.47;3.30;;;;;;;;;;5072347;28;20180;-80
2021/08/06 05:35:56;;;;;;;3.07;2.80;;;;;;;;;;5071713;28;20621;-81
2021/08/06 05:38:22;;;;;;;5.47;3.20;;;;;;;;;;5054578;28;20180;-81
2021/08/06 05:40:48;;;;;;;3.30;3.00;;;;;;;;;;5055338;28;20177;-81
2021/08/06 05:43:14;;;;;;;3.83;3.40;;;;;;;;;;5054797;28;20208;-80
2021/08/06 05:45:42;;;;;;;3.73;3.07;;;;;;;;;;5054536;28;20259;-80
2021/08/06 05:48:09;;;;;;;3.80;3.13;;;;;;;;;;5054615;28;20193;-80
2021/08/06 05:50:39;;;;;;;4.00;3.03;;;;;;;;;;5053775;28;20176;-81
2021/08/06 05:53:05;;;;;;;4.40;3.50;;;;;;;;;;5054366;28;20187;-80
2021/08/06 05:55:31;;;;;;;4.47;2.97;;;;;;;;;;5059062;28;20258;-79
2021/08/06 05:57:58;;;;;;;3.60;3.30;;;;;;;;;;5062764;28;20244;-81
2021/08/06 06:00:24;;;;;;;3.27;2.97;;;;;;;;;;5070627;28;20708;-81
2021/08/06 06:02:50;;;;;;;5.67;3.40;;;;;;;;;;5071024;28;20248;-81
2021/08/06 06:05:16;;;;;;;6.17;3.20;;;;;;;;;;5071689;28;20172;-79
2021/08/06 06:07:43;;;;;;;5.77;3.47;;;;;;;;;;5071100;28;20208;-80
2021/08/06 06:10:09;;;;;;;6.17;3.50;;;;;;;;;;5070992;28;20181;-80
2021/08/06 06:12:35;;;;;;;6.90;4.10;;;;;;;;;;5072702;28;20523;-80
2021/08/06 06:15:01;;;;;;;5.70;3.60;;;;;;;;;;5071543;28;20189;-80
2021/08/06 06:17:27;;;;;;;4.67;3.73;;;;;;;;;;5070487;28;20609;-80
2021/08/06 06:19:53;;;;;;;5.77;3.57;;;;;;;;;;5069957;28;20181;-81
2021/08/06 06:22:19;;;;;;;4.73;4.33;;;;;;;;;;5065229;28;20189;-80
2021/08/06 06:24:45;;;;;;;3.47;3.17;;;;;;;;;;5066450;28;20224;-80
2021/08/06 06:27:11;;;;;;;9.07;3.73;;;;;;;;;;5070822;28;20848;-84
2021/08/06 06:29:37;;;;;;;4.80;4.30;;;;;;;;;;5070486;28;20187;-82
2021/08/06 06:32:03;;;;;;;4.23;3.83;;;;;;;;;;5070524;28;20175;-79
2021/08/06 06:34:30;;;;;;;5.43;4.20;;;;;;;;;;5071197;28;20321;-80
2021/08/06 06:36:56;;;;;;;3.80;3.50;;;;;;;;;;5067653;28;20536;-79
2021/08/06 06:39:22;;;;;;;6.03;3.77;;;;;;;;;;5051380;28;20178;-82
2021/08/06 06:41:48;;;;;;;6.40;3.73;;;;;;;;;;5068357;28;20248;-83
2021/08/06 06:44:14;;;;;;;4.90;4.00;;;;;;;;;;5064451;28;20204;-86
2021/08/06 06:46:40;;;;;;;5.63;3.93;;;;;;;;;;5073064;28;20181;-86
2021/08/06 06:49:06;;;;;;;6.57;4.10;;;;;;;;;;5072771;28;20248;-85
2021/08/06 06:51:32;;;;;;;5.27;4.70;;;;;;;;;;5073294;28;20173;-86
2021/08/06 06:53:58;;;;;;;6.10;4.47;;;;;;;;;;5062357;28;20685;-86
2021/08/06 06:56:24;;;;;;;5.43;4.43;;;;;;;;;;5058724;28;20192;-87
2021/08/06 06:58:52;;;;;;;4.67;4.20;;;;;;;;;;5071886;28;20575;-87
2021/08/06 07:01:18;;;;;;;4.63;4.23;;;;;;;;;;5072895;28;20172;-86
2021/08/06 07:03:44;;;;;;;6.73;5.00;;;;;;;;;;5071067;28;20222;-86
2021/08/06 07:06:10;;;;;;;5.00;4.50;;;;;;;;;;5071423;28;20200;-87
2021/08/06 07:08:38;;;;;;;5.90;4.47;;;;;;;;;;5072582;28;20600;-87
2021/08/06 07:11:05;;;;;;;5.37;4.87;;;;;;;;;;5070079;28;20818;-87
2021/08/06 07:13:31;;;;;;;5.97;4.03;;;;;;;;;;5070637;28;20582;-87
2021/08/06 07:15:57;;;;;;;5.87;4.83;;;;;;;;;;5071106;28;20206;-86
2021/08/06 07:18:26;;;;;;;5.10;4.63;;;;;;;;;;5071368;28;20271;-86
2021/08/06 07:20:52;;;;;;;4.20;3.80;;;;;;;;;;5072460;28;20244;-86
2021/08/06 07:23:18;;;;;;;7.40;4.50;;;;;;;;;;5071958;28;20530;-86
2021/08/06 07:25:44;;;;;;;4.03;3.73;;;;;;;;;;5063382;28;20646;-81
2021/08/06 07:28:10;;;;;;;5.03;4.10;;;;;;;;;;5062583;28;20177;-81
2021/08/06 07:30:37;;;;;;;4.43;4.03;;;;;;;;;;5073705;28;20173;-82
2021/08/06 07:33:03;;;;;;;4.33;3.93;;;;;;;;;;5080817;28;20630;-81
2021/08/06 07:35:32;;;;;;;4.20;3.73;;;;;;;;;;5073186;28;20591;-83
2021/08/06 07:37:58;;;;;;;4.50;4.13;;;;;;;;;;5085396;28;20287;-83
2021/08/06 07:40:24;;;;;;;4.63;3.30;;;;;;;;;;5111830;28;20180;-83
2021/08/06 07:42:52;;;;;;;4.40;3.47;;;;;;;;;;5094290;28;20179;-81
2021/08/06 07:45:19;;;;;;;4.27;3.43;;;;;;;;;;5078473;28;20175;-83
2021/08/06 07:47:45;;;;;;;3.20;2.90;;;;;;;;;;5077391;28;20255;-85
2021/08/06 07:50:11;;;;;;;3.03;2.70;;;;;;;;;;5076168;28;20261;-84
2021/08/06 07:52:37;;;;;;;6.30;3.10;;;;;;;;;;5075170;28;20169;-82
2021/08/06 07:55:04;;;;;;;4.60;2.80;;;;;;;;;;5063281;28;20524;-82
2021/08/06 07:57:30;;;;;;;4.00;2.80;;;;;;;;;;5073215;28;20220;-81
2021/08/06 07:59:56;;;;;;;2.93;2.53;;;;;;;;;;5073483;28;20657;-83
2021/08/06 08:02:23;;;;;;;3.87;2.40;;;;;;;;;;5074724;28;20333;-81
2021/08/06 08:04:49;;;;;;;2.87;2.17;;;;;;;;;;5068440;28;20216;-80
2021/08/06 08:07:15;;;;;;;4.73;2.20;;;;;;;;;;5070389;28;20201;-80
2021/08/06 08:09:41;;;;;;;2.53;2.33;;;;;;;;;;5070817;28;20750;-82
2021/08/06 08:12:07;;;;;;;10.10;2.80;;;;;;;;;;5070059;28;20196;-82
2021/08/06 08:14:34;;;;;;;5.57;3.20;;;;;;;;;;5072122;28;20250;-80
2021/08/06 08:17:00;;;;;;;4.63;2.47;;;;;;;;;;5073990;28;20604;-83
2021/08/06 08:19:26;;;;;;;3.30;2.33;;;;;;;;;;5073890;28;20191;-83
2021/08/06 08:21:52;;;;;;;3.20;2.47;;;;;;;;;;5074504;28;20177;-84
2021/08/06 08:24:18;;;;;;;2.87;2.07;;;;;;;;;;5074157;28;20261;-84
2021/08/06 08:26:45;;;;;;;2.03;1.77;;;;;;;;;;5075597;28;20173;-84
2021/08/06 08:29:11;;;;;;;2.77;2.10;;;;;;;;;;5075941;28;20225;-83
2021/08/06 08:31:37;;;;;;;2.83;2.10;;;;;;;;;;5074661;28;20763;-83
2021/08/06 08:34:03;;;;;;;2.55;2.10;;;;;;;;;;5074666;28;20422;-83
2021/08/06 08:36:29;;;;;;;2.87;2.07;;;;;;;;;;5088724;28;20177;-80
2021/08/06 08:38:56;;;;;;;2.30;1.87;;;;;;;;;;5073542;28;20192;-81
2021/08/06 08:41:22;;;;;;;3.27;2.10;;;;;;;;;;5073183;28;20176;-79
2021/08/06 08:43:48;;;;;;;2.90;2.17;;;;;;;;;;5098320;28;20663;-84
2021/08/06 08:46:15;;;;;;;3.27;1.97;;;;;;;;;;5073848;28;20176;-84
2021/08/06 08:48:41;;;;;;;2.93;2.10;;;;;;;;;;5071244;28;21207;-82
2021/08/06 08:51:07;;;;;;;2.53;2.33;;;;;;;;;;5081615;28;20180;-82
2021/08/06 08:53:33;;;;;;;3.23;2.10;;;;;;;;;;5067934;28;20223;-82
2021/08/06 08:55:59;;;;;;;4.43;2.30;;;;;;;;;;5068380;28;20184;-83
2021/08/06 08:58:25;;;;;;;2.80;1.90;;;;;;;;;;5065541;28;20272;-82
2021/08/06 09:00:51;;;;;;;3.50;2.50;;;;;;;;;;5070200;28;20609;-83
2021/08/06 09:03:38;;;;;;;3.13;2.10;;;;;;;;;;5069965;28;20261;-87
2021/08/06 09:06:04;;;;;;;6.10;2.30;;;;;;;;;;5062937;28;20182;-81
2021/08/06 09:08:30;;;;;;;3.80;2.30;;;;;;;;;;5073947;28;20184;-84
2021/08/06 09:10:56;;;;;;;5.90;2.20;;;;;;;;;;5072931;28;20180;-83
2021/08/06 09:13:23;;;;;;;3.30;2.47;;;;;;;;;;5072793;28;20173;-83
2021/08/06 09:15:51;;;;;;;3.33;2.20;;;;;;;;;;5067999;28;20177;-84
2021/08/06 09:18:26;;;;;;;3.13;2.40;;;;;;;;;;5071425;28;20218;-84
2021/08/06 09:20:53;;;;;;;2.60;2.40;;;;;;;;;;5071597;28;20200;-84
2021/08/06 09:23:38;;;;;;;5.07;2.73;;;;;;;;;;5070034;28;20216;-85
2021/08/06 09:26:04;;;;;;;2.63;2.40;;;;;;;;;;5066020;28;20192;-84
2021/08/06 09:28:30;;;;;;;5.00;2.80;;;;;;;;;;5076086;28;20176;-84
2021/08/06 09:30:56;;;;;;;2.87;2.20;;;;;;;;;;5076580;28;20177;-85
2021/08/06 09:33:32;;;;;;;3.97;2.53;;;;;;;;;;5075982;28;20604;-84
2021/08/06 09:36:11;;;;;;;2.20;2.00;;;;;;;;;;5077238;28;20184;-84
2021/08/06 09:38:38;;;;;;;3.43;2.10;;;;;;;;;;5071278;28;20271;-84
2021/08/06 09:41:04;;;;;;;2.97;2.20;;;;;;;;;;5106377;28;20223;-85
2021/08/06 09:43:30;;;;;;;2.40;2.20;;;;;;;;;;5076206;28;20207;-84
2021/08/06 09:45:56;;;;;;;3.73;2.43;;;;;;;;;;5075150;28;20184;-84
2021/08/06 09:48:26;;;;;;;4.57;2.20;;;;;;;;;;5073935;28;20176;-85
2021/08/06 09:50:52;;;;;;;4.10;2.20;;;;;;;;;;5068844;28;20270;-85
2021/08/06 09:53:20;;;;;;;9.17;2.90;;;;;;;;;;5075465;28;20180;-85
2021/08/06 09:55:49;;;;;;;2.70;2.33;;;;;;;;;;5079755;28;20230;-84
2021/08/06 09:58:17;;;;;;;2.63;2.10;;;;;;;;;;5070999;28;20216;-82
2021/08/06 10:00:45;;;;;;;3.47;2.30;;;;;;;;;;5055322;28;20192;-81
2021/08/06 10:03:31;;;;;;;4.90;2.60;;;;;;;;;;5078461;28;20207;-82
2021/08/06 10:06:26;;;;;;;6.60;5.83;;;;;;;;;;5047006;28;20616;-82
2021/08/06 10:08:52;;;;;;;4.20;2.67;;;;;;;;;;5043183;28;20185;-80
2021/08/06 10:11:18;;;;;;;2.67;2.33;;;;;;;;;;5065429;28;20180;-80
2021/08/06 10:13:47;;;;;;;2.73;2.43;;;;;;;;;;5065814;28;20188;-81
2021/08/06 10:16:13;;;;;;;3.07;2.83;;;;;;;;;;5047841;28;20191;-81
2021/08/06 10:18:41;;;;;;;2.80;2.60;;;;;;;;;;5051125;28;20663;-82
2021/08/06 10:21:07;;;;;;;4.73;2.83;;;;;;;;;;5079520;28;20245;-81
2021/08/06 10:23:33;;;;;;;3.07;2.53;;;;;;;;;;5066311;28;20230;-80
2021/08/06 10:26:00;;;;;;;6.10;3.27;;;;;;;;;;5065915;28;20185;-82
2021/08/06 10:28:27;;;;;;;4.20;2.60;;;;;;;;;;5051101;28;20206;-81
2021/08/06 10:31:13;;;;;;;3.00;2.40;;;;;;;;;;5059047;28;20275;-80
2021/08/06 10:33:59;;;;;;;3.90;2.97;;;;;;;;;;5082455;28;20283;-83
2021/08/06 10:36:51;;;;;;;3.67;3.23;;;;;;;;;;5052969;28;20238;-80
2021/08/06 10:39:27;;;;;;;6.00;3.37;;;;;;;;;;5063866;28;20299;-82
2021/08/06 10:41:53;;;;;;;22.53;12.77;;;;;;;;;;5054629;28;20176;-80
2021/08/06 10:44:19;;;;;;;51.00;26.63;;;;;;;;;;5072683;28;20200;-80
2021/08/06 10:47:02;;;;;;;9.50;6.03;;;;;;;;;;5084717;28;20176;-81
2021/08/06 10:49:31;;;;;;;4.10;2.80;;;;;;;;;;5056192;28;20200;-79
2021/08/06 10:52:26;;;;;;;3.13;2.23;;;;;;;;;;5055314;28;20824;-83
2021/08/06 10:55:12;;;;;;;2.50;2.30;;;;;;;;;;5053504;28;20559;-85
2021/08/06 10:57:38;;;;;;;7.13;2.50;;;;;;;;;;5085403;28;20235;-82
2021/08/06 11:00:05;;;;;;;4.07;2.23;;;;;;;;;;5065570;28;20177;-84
2021/08/06 11:02:34;;;;;;;2.70;2.10;;;;;;;;;;5051734;28;20188;-86
2021/08/06 11:05:00;;;;;;;3.73;2.50;;;;;;;;;;5054739;28;20264;-82
2021/08/06 11:07:37;;;;;;;3.13;2.20;;;;;;;;;;5058877;28;20861;-83
2021/08/06 11:10:03;;;;;;;2.93;2.43;;;;;;;;;;5074684;28;20180;-83
2021/08/06 11:12:33;;;;;;;3.90;2.07;;;;;;;;;;5073281;28;20181;-79
2021/08/06 11:15:02;;;;;;;2.97;2.13;;;;;;;;;;5065854;28;20204;-77
2021/08/06 11:17:41;;;;;;;3.90;2.40;;;;;;;;;;5056245;28;20592;-79
2021/08/06 11:20:07;;;;;;;2.50;2.07;;;;;;;;;;5058123;28;20192;-79
2021/08/06 11:22:35;;;;;;;2.77;1.80;;;;;;;;;;5056594;28;20194;-82
2021/08/06 11:25:06;;;;;;;3.83;2.33;;;;;;;;;;5063142;28;20197;-79
2021/08/06 11:27:36;;;;;;;2.00;1.80;;;;;;;;;;5058758;28;20190;-80
2021/08/06 11:30:08;;;;;;;6.50;2.37;;;;;;;;;;5064350;28;20197;-80
2021/08/06 11:32:52;;;;;;;3.07;2.20;;;;;;;;;;5061712;28;20185;-80
2021/08/06 11:35:20;;;;;;;7.67;2.70;;;;;;;;;;5074259;28;20269;-80
2021/08/06 11:37:52;;;;;;;2.40;1.93;;;;;;;;;;5066486;28;20655;-80
2021/08/06 11:40:20;;;;;;;2.30;2.10;;;;;;;;;;5059038;28;20288;-82
2021/08/06 11:42:47;;;;;;;4.20;2.63;;;;;;;;;;5067092;28;20263;-81
2021/08/06 11:45:14;;;;;;;5.40;2.50;;;;;;;;;;5056045;28;20233;-80
2021/08/06 11:47:45;;;;;;;3.53;2.47;;;;;;;;;;5063392;28;20692;-80
2021/08/06 11:50:13;;;;;;;5.20;2.20;;;;;;;;;;5071005;28;20178;-80
2021/08/06 11:52:43;;;;;;;3.03;2.20;;;;;;;;;;5061316;28;20204;-80
2021/08/06 11:55:11;;;;;;;4.00;2.60;;;;;;;;;;5070618;28;20190;-79
2021/08/06 11:57:47;;;;;;;3.03;2.40;;;;;;;;;;5075244;28;20405;-79
2021/08/06 12:00:16;;;;;;;3.20;2.60;;;;;;;;;;5067216;28;20183;-80
2021/08/06 12:02:42;;;;;;;4.00;2.93;;;;;;;;;;5090186;28;20263;-79
2021/08/06 12:05:24;;;;;;;4.37;2.80;;;;;;;;;;5075093;28;20205;-79
2021/08/06 12:07:50;;;;;;;3.87;2.13;;;;;;;;;;5090372;28;20295;-79
2021/08/06 12:10:16;;;;;;;4.07;2.40;;;;;;;;;;5076778;28;20180;-80
2021/08/06 12:12:42;;;;;;;4.17;2.37;;;;;;;;;;5075422;28;20225;-79
2021/08/06 12:15:25;;;;;;;2.50;1.73;;;;;;;;;;5086681;28;20194;-80
2021/08/06 12:18:09;;;;;;;3.93;1.80;;;;;;;;;;5082642;28;20188;-80
2021/08/06 12:20:40;;;;;;;2.03;1.60;;;;;;;;;;5073761;28;20211;-80
2021/08/06 12:23:06;;;;;;;5.30;2.03;;;;;;;;;;5086655;28;20177;-79
2021/08/06 12:25:33;;;;;;;4.33;1.70;;;;;;;;;;5074635;28;20177;-79
2021/08/06 12:28:00;;;;;;;3.27;2.00;;;;;;;;;;5070459;28;20181;-80
2021/08/06 12:30:26;;;;;;;3.57;1.80;;;;;;;;;;5082549;28;20267;-78
2021/08/06 12:32:53;;;;;;;3.07;2.07;;;;;;;;;;5087114;28;20256;-79
2021/08/06 12:35:20;;;;;;;4.20;1.60;;;;;;;;;;5072382;28;20623;-80
2021/08/06 12:37:46;;;;;;;2.57;1.57;;;;;;;;;;5071648;28;20186;-78
2021/08/06 12:40:13;;;;;;;4.97;1.80;;;;;;;;;;5077746;28;20188;-79
2021/08/06 12:42:39;;;;;;;2.20;1.53;;;;;;;;;;5083748;28;20192;-78
2021/08/06 12:45:11;;;;;;;2.73;1.40;;;;;;;;;;5075019;28;20221;-78
2021/08/06 12:47:46;;;;;;;3.70;1.60;;;;;;;;;;5091259;28;20242;-80
2021/08/06 12:50:13;;;;;;;1.43;1.33;;;;;;;;;;5094791;27;20176;-80
2021/08/06 12:52:40;;;;;;;3.20;2.03;;;;;;;;;;5087939;28;20183;-78
2021/08/06 12:55:10;;;;;;;1.87;1.60;;;;;;;;;;5108562;27;20205;-78
2021/08/06 12:57:36;;;;;;;2.90;1.83;;;;;;;;;;5074755;28;20231;-77
2021/08/06 13:00:18;;;;;;;2.23;2.03;;;;;;;;;;5067954;28;20639;-78
2021/08/06 13:02:44;;;;;;;1.60;1.50;;;;;;;;;;5070344;28;20524;-79
2021/08/06 13:05:12;;;;;;;2.00;1.80;;;;;;;;;;5059079;28;20218;-80
2021/08/06 13:07:41;;;;;;;3.20;1.80;;;;;;;;;;5074214;28;20210;-79
2021/08/06 13:10:23;;;;;;;4.57;1.70;;;;;;;;;;5080813;28;20266;-80
2021/08/06 13:12:49;;;;;;;7.07;2.07;;;;;;;;;;5086014;28;20193;-78
2021/08/06 13:15:15;;;;;;;1.93;1.70;;;;;;;;;;5072578;28;20718;-79
2021/08/06 13:17:41;;;;;;;3.30;2.10;;;;;;;;;;5069706;28;20823;-80
2021/08/06 13:20:08;;;;;;;2.70;1.63;;;;;;;;;;5051367;28;20230;-79
2021/08/06 13:22:34;;;;;;;2.53;1.93;;;;;;;;;;5071898;28;20259;-81
2021/08/06 13:25:00;;;;;;;2.40;1.90;;;;;;;;;;5073213;28;20227;-81
2021/08/06 13:27:26;;;;;;;2.57;2.10;;;;;;;;;;5071685;28;20178;-80
2021/08/06 13:29:52;;;;;;;3.47;2.22;;;;;;;;;;5071282;28;20430;-82
2021/08/06 13:32:19;;;;;;;2.47;1.98;;;;;;;;;;5085926;28;20538;-80
2021/08/06 13:34:45;;;;;;;4.23;2.13;;;;;;;;;;5070613;28;21901;-80
2021/08/06 13:37:11;;;;;;;2.93;1.80;;;;;;;;;;5071699;28;20247;-79
2021/08/06 13:39:37;;;;;;;2.27;1.83;;;;;;;;;;5070901;28;20185;-80
2021/08/06 13:42:04;;;;;;;4.00;2.30;;;;;;;;;;5075330;28;20189;-80
2021/08/06 13:44:30;;;;;;;1.93;1.77;;;;;;;;;;5077265;28;20245;-81
2021/08/06 13:46:57;;;;;;;3.27;2.00;;;;;;;;;;5074508;28;20275;-88
2021/08/06 13:49:23;;;;;;;4.53;1.90;;;;;;;;;;5064482;28;20190;-83
2021/08/06 13:51:50;;;;;;;2.13;1.93;;;;;;;;;;5065912;28;20183;-80
2021/08/06 13:54:17;;;;;;;2.60;2.10;;;;;;;;;;5066743;28;20183;-87
2021/08/06 13:56:51;;;;;;;2.03;1.77;;;;;;;;;;5052399;28;20685;-58
2021/08/06 13:59:19;;;;;;;3.10;1.90;;;;;;;;;;5046584;28;20183;-60
2021/08/06 14:01:45;;;;;;;2.20;1.87;;;;;;;;;;5047221;28;20504;-60
2021/08/06 14:04:11;;;;;;;1.50;1.40;;;;;;;;;;5046415;28;20303;-61
2021/08/06 14:06:38;;;;;;;3.13;1.70;;;;;;;;;;5050232;28;20200;-64
2021/08/06 14:09:04;;;;;;;1.70;1.40;;;;;;;;;;5046066;28;20200;-62
2021/08/06 14:11:30;;;;;;;1.87;1.53;;;;;;;;;;5052331;28;20188;-60
2021/08/06 14:13:56;;;;;;;1.60;1.30;;;;;;;;;;5049096;28;20196;-61
2021/08/06 14:16:22;;;;;;;1.73;1.17;;;;;;;;;;5051703;28;20805;-62
2021/08/06 14:18:49;;;;;;;1.20;1.10;;;;;;;;;;5049492;28;20226;-60
2021/08/06 14:21:15;;;;;;;1.90;1.60;;;;;;;;;;5048140;28;20180;-60
2021/08/06 14:23:41;;;;;;;1.83;1.40;;;;;;;;;;5050433;28;20195;-62
2021/08/06 14:26:07;;;;;;;4.37;1.60;;;;;;;;;;5044978;28;20189;-62
2021/08/06 14:28:33;;;;;;;1.60;1.30;;;;;;;;;;5041419;28;20207;-61
2021/08/06 14:31:00;;;;;;;6.73;1.60;;;;;;;;;;5050113;28;20190;-61
2021/08/06 14:33:26;;;;;;;1.93;1.40;;;;;;;;;;5042321;28;20182;-61
2021/08/06 14:35:52;;;;;;;1.67;1.57;;;;;;;;;;5050233;28;20678;-59
2021/08/06 14:38:18;;;;;;;6.00;1.50;;;;;;;;;;5048218;28;20184;-59
2021/08/06 14:40:45;;;;;;;2.00;1.40;;;;;;;;;;5048004;28;20189;-59
2021/08/06 14:43:11;;;;;;;1.43;1.33;;;;;;;;;;5046828;28;20183;-60
2021/08/06 14:45:38;;;;;;;3.90;1.60;;;;;;;;;;5048427;28;20195;-60